createdAt,value
2023-04-16T00:00:34.272Z,12.61
2023-04-16T00:05:57.043Z,12.70
2023-04-16T00:10:59.725Z,12.62
2023-04-16T00:16:02.506Z,12.59
2023-04-16T00:21:05.653Z,12.73
2023-04-16T00:26:09.136Z,13.17
2023-04-16T00:31:11.994Z,13.36
2023-04-16T00:36:14.877Z,13.32
2023-04-16T00:41:18.035Z,13.26
2023-04-16T00:46:25.573Z,12.95
2023-04-16T00:51:29.086Z,13.01
2023-04-16T00:56:33.452Z,13.20
2023-04-16T01:01:36.320Z,13.21
2023-04-16T01:06:39.167Z,13.11
2023-04-16T01:11:41.886Z,13.19
2023-04-16T01:16:44.667Z,13.14
2023-04-16T01:21:47.461Z,13.09
2023-04-16T01:26:50.283Z,12.76
2023-04-16T01:31:53.331Z,12.87
2023-04-16T01:36:57.058Z,13.12
2023-04-16T01:41:59.786Z,13.15
2023-04-16T01:47:02.713Z,13.08
2023-04-16T01:52:05.611Z,12.97
2023-04-16T01:57:08.373Z,13.03
2023-04-16T02:02:12.642Z,13.16
2023-04-16T02:07:16.410Z,13.16
2023-04-16T02:12:19.799Z,13.52
2023-04-16T02:17:22.569Z,13.77
2023-04-16T02:22:25.687Z,12.37
2023-04-16T02:27:28.423Z,11.36
2023-04-16T02:32:31.520Z,12.07
2023-04-16T02:37:35.013Z,12.69
2023-04-16T02:42:37.702Z,13.22
2023-04-16T02:47:40.594Z,13.32
2023-04-16T02:52:43.420Z,13.03
2023-04-16T02:57:46.234Z,13.21
2023-04-16T03:02:49.173Z,13.21
2023-04-16T03:07:56.823Z,11.59
2023-04-16T03:12:59.572Z,10.85
2023-04-16T03:18:02.570Z,11.64
2023-04-16T03:23:05.558Z,11.95
2023-04-16T03:28:08.278Z,12.01
2023-04-16T03:33:11.273Z,12.09
2023-04-16T03:38:14.200Z,12.19
2023-04-16T03:43:16.893Z,12.15
2023-04-16T03:48:20.159Z,12.24
2023-04-16T03:53:22.886Z,12.62
2023-04-16T03:58:25.907Z,12.68
2023-04-16T04:03:29.135Z,12.67
2023-04-16T04:08:32.264Z,12.78
2023-04-16T04:13:35.133Z,12.54
2023-04-16T04:18:37.895Z,12.76
2023-04-16T04:23:42.565Z,12.77
2023-04-16T04:28:45.344Z,11.12
2023-04-16T04:33:48.264Z,11.01
2023-04-16T04:38:51.256Z,12.08
2023-04-16T04:43:54.117Z,12.60
2023-04-16T04:48:57.296Z,12.91
2023-04-16T04:54:00.026Z,12.80
2023-04-16T04:59:03.185Z,11.23
2023-04-16T05:04:06.442Z,11.46
2023-04-16T05:09:12.482Z,12.09
2023-04-16T05:14:15.211Z,12.27
2023-04-16T05:19:17.974Z,12.64
2023-04-16T05:24:20.786Z,12.96
2023-04-16T05:29:24.003Z,12.76
2023-04-16T05:34:26.706Z,13.06
2023-04-16T05:39:29.419Z,12.43
2023-04-16T05:44:32.164Z,11.32
2023-04-16T05:49:37.680Z,11.81
2023-04-16T05:54:40.888Z,12.28
2023-04-16T05:59:44.179Z,12.59
2023-04-16T06:04:46.990Z,12.63
2023-04-16T06:09:49.690Z,12.66
2023-04-16T06:14:52.622Z,13.29
2023-04-16T06:19:55.908Z,13.49
2023-04-16T06:24:58.708Z,12.29
2023-04-16T06:30:01.529Z,12.90
2023-04-16T06:35:05.304Z,14.09
2023-04-16T06:40:09.044Z,14.01
2023-04-16T06:45:12.775Z,12.51
2023-04-16T06:50:16.194Z,12.79
2023-04-16T06:55:18.997Z,14.14
2023-04-16T07:00:21.896Z,14.71
2023-04-16T07:05:24.703Z,14.25
2023-04-16T07:10:28.002Z,13.05
2023-04-16T07:15:30.833Z,12.76
2023-04-16T07:20:33.663Z,14.19
2023-04-16T07:25:36.523Z,14.48
2023-04-16T07:30:39.429Z,13.10
2023-04-16T07:35:42.131Z,13.09
2023-04-16T07:40:44.929Z,14.58
2023-04-16T07:45:47.805Z,14.50
2023-04-16T07:50:50.941Z,13.07
2023-04-16T07:55:53.651Z,12.76
2023-04-16T08:00:56.647Z,14.17
2023-04-16T08:05:59.654Z,14.37
2023-04-16T08:11:02.338Z,13.16
2023-04-16T08:16:06.148Z,12.65
2023-04-16T08:21:09.087Z,13.70
2023-04-16T08:26:11.810Z,13.18
2023-04-16T08:31:14.603Z,12.27
2023-04-16T08:36:17.351Z,12.85
2023-04-16T08:41:22.979Z,12.40
2023-04-16T08:46:28.655Z,11.51
2023-04-16T08:51:35.459Z,12.83
2023-04-16T08:56:43.399Z,13.39
2023-04-16T09:01:49.221Z,12.16
2023-04-16T09:06:53.873Z,12.02
2023-04-16T09:11:56.664Z,13.28
2023-04-16T09:17:03.239Z,12.66
2023-04-16T09:22:06.426Z,11.60
2023-04-16T09:27:09.506Z,12.77
2023-04-16T09:32:12.463Z,13.76
2023-04-16T09:37:16.927Z,12.86
2023-04-16T09:42:27.814Z,12.07
2023-04-16T09:47:41.627Z,12.64
2023-04-16T09:52:48.265Z,14.03
2023-04-16T09:57:59.659Z,13.20
2023-04-16T10:03:07.539Z,12.27
2023-04-16T10:08:14.430Z,13.10
2023-04-16T10:13:19.344Z,14.54
2023-04-16T10:18:22.862Z,14.35
2023-04-16T10:23:26.691Z,15.16
2023-04-16T10:28:31.113Z,15.83
2023-04-16T10:33:37.399Z,14.80
2023-04-16T10:38:44.905Z,14.16
2023-04-16T10:43:50.909Z,14.66
2023-04-16T10:48:55.840Z,15.91
2023-04-16T10:54:03.053Z,14.96
2023-04-16T10:59:07.070Z,14.23
2023-04-16T11:04:22.315Z,13.69
2023-04-16T11:09:46.164Z,13.20
2023-04-16T11:14:52.163Z,14.57
2023-04-16T11:19:55.769Z,15.13
2023-04-16T11:24:58.568Z,13.57
2023-04-16T11:30:04.310Z,12.44
2023-04-16T11:35:33.539Z,11.76
2023-04-16T11:40:36.596Z,13.02
2023-04-16T11:45:39.463Z,13.80
2023-04-16T11:50:42.401Z,12.69
2023-04-16T11:55:46.033Z,11.98
2023-04-16T12:00:49.812Z,12.59
2023-04-16T12:05:52.494Z,14.10
2023-04-16T12:10:56.344Z,14.22
2023-04-16T12:15:59.432Z,12.78
2023-04-16T12:21:04.753Z,11.85
2023-04-16T12:26:10.822Z,11.93
2023-04-16T12:31:14.723Z,13.44
2023-04-16T12:36:19.069Z,13.72
2023-04-16T12:41:22.078Z,12.30
2023-04-16T12:46:24.877Z,11.50
2023-04-16T12:51:28.112Z,11.73
2023-04-16T12:56:31.414Z,13.46
2023-04-16T13:01:36.800Z,14.06
2023-04-16T13:06:42.503Z,12.97
2023-04-16T13:11:45.936Z,12.12
2023-04-16T13:16:48.624Z,12.15
2023-04-16T13:21:51.355Z,13.85
2023-04-16T13:26:54.146Z,14.86
2023-04-16T13:31:57.653Z,13.91
2023-04-16T13:37:00.455Z,12.84
2023-04-16T13:42:03.277Z,12.19
2023-04-16T13:47:06.557Z,12.51
2023-04-16T13:52:09.688Z,14.29
2023-04-16T13:57:12.731Z,14.38
2023-04-16T14:02:15.690Z,13.22
2023-04-16T14:07:19.934Z,12.58
2023-04-16T14:12:23.144Z,12.29
2023-04-16T14:17:25.966Z,13.92
2023-04-16T14:22:28.849Z,15.35
2023-04-16T14:27:32.562Z,14.50
2023-04-16T14:32:36.296Z,13.64
2023-04-16T14:37:39.294Z,13.17
2023-04-16T14:42:42.112Z,13.65
2023-04-16T14:47:48.290Z,15.48
2023-04-16T14:52:51.538Z,15.73
2023-04-16T14:57:54.302Z,14.22
2023-04-16T15:02:57.957Z,13.12
2023-04-16T15:08:01.263Z,12.39
2023-04-16T15:13:04.037Z,11.83
2023-04-16T15:18:06.911Z,12.32
2023-04-16T15:23:09.659Z,13.91
2023-04-16T15:28:12.630Z,14.75
2023-04-16T15:33:16.252Z,14.18
2023-04-16T15:38:21.626Z,12.70
2023-04-16T15:43:28.002Z,11.81
2023-04-16T15:48:30.705Z,11.21
2023-04-16T15:53:34.593Z,11.42
2023-04-16T15:58:37.296Z,13.14
2023-04-16T16:03:40.299Z,14.19
2023-04-16T16:08:44.000Z,14.20
2023-04-16T16:13:46.997Z,12.76
2023-04-16T16:18:49.711Z,11.78
2023-04-16T16:23:52.415Z,11.12
2023-04-16T16:28:57.165Z,10.58
2023-04-16T16:34:00.046Z,10.85
2023-04-16T16:39:04.358Z,12.56
2023-04-16T16:44:07.021Z,13.65
2023-04-16T16:49:10.230Z,14.36
2023-04-16T16:54:13.563Z,13.72
2023-04-16T16:59:16.304Z,12.27
2023-04-16T17:04:20.386Z,11.38
2023-04-16T17:09:23.446Z,10.71
2023-04-16T17:14:26.207Z,10.19
2023-04-16T17:19:28.940Z,10.52
2023-04-16T17:24:31.739Z,12.25
2023-04-16T17:29:34.616Z,13.25
2023-04-16T17:34:37.332Z,13.90
2023-04-16T17:39:40.035Z,14.31
2023-04-16T17:44:43.364Z,14.03
2023-04-16T17:49:46.363Z,12.49
2023-04-16T17:54:49.464Z,11.42
2023-04-16T17:59:52.685Z,10.68
2023-04-16T18:04:55.675Z,10.13
2023-04-16T18:09:58.681Z,10.46
2023-04-16T18:15:01.560Z,12.15
2023-04-16T18:20:07.264Z,13.15
2023-04-16T18:25:10.159Z,13.74
2023-04-16T18:30:20.153Z,14.18
2023-04-16T18:35:28.366Z,13.85
2023-04-16T18:40:34.521Z,12.32
2023-04-16T18:45:37.370Z,11.27
2023-04-16T18:50:40.321Z,10.53
2023-04-16T18:55:43.076Z,10.62
2023-04-16T19:00:46.336Z,12.17
2023-04-16T19:05:49.323Z,13.16
2023-04-16T19:10:52.129Z,13.79
2023-04-16T19:16:01.786Z,14.28
2023-04-16T19:21:05.770Z,13.97
2023-04-16T19:26:08.888Z,12.34
2023-04-16T19:31:11.680Z,11.26
2023-04-16T19:36:14.616Z,10.51
2023-04-16T19:41:17.726Z,9.95
2023-04-16T19:46:20.844Z,10.59
2023-04-16T19:51:24.620Z,12.55
2023-04-16T19:56:27.632Z,13.72
2023-04-16T20:01:33.763Z,14.37
2023-04-16T20:06:37.020Z,14.07
2023-04-16T20:11:39.709Z,12.35
2023-04-16T20:16:43.756Z,11.20
2023-04-16T20:21:46.755Z,10.41
2023-04-16T20:26:49.889Z,10.59
2023-04-16T20:31:52.883Z,12.45
2023-04-16T20:36:55.873Z,13.29
2023-04-16T20:41:58.571Z,13.76
2023-04-16T20:47:01.358Z,14.09
2023-04-16T20:52:05.653Z,13.76
2023-04-16T20:57:08.512Z,12.07
2023-04-16T21:02:11.714Z,10.89
2023-04-16T21:07:14.931Z,10.74
2023-04-16T21:12:17.718Z,12.10
2023-04-16T21:17:20.757Z,12.80
2023-04-16T21:22:24.048Z,12.65
2023-04-16T21:27:26.857Z,11.13
2023-04-16T21:32:29.553Z,10.86
2023-04-16T21:37:32.324Z,12.68
2023-04-16T21:42:40.133Z,13.69
2023-04-16T21:47:42.910Z,14.28
2023-04-16T21:52:46.846Z,14.03
2023-04-16T21:57:50.120Z,12.27
2023-04-16T22:02:56.264Z,11.08
2023-04-16T22:07:59.209Z,10.28
2023-04-16T22:13:02.259Z,10.52
2023-04-16T22:18:05.125Z,12.51
2023-04-16T22:23:08.022Z,13.68
2023-04-16T22:28:10.728Z,14.39
2023-04-16T22:33:13.494Z,14.18
2023-04-16T22:38:16.884Z,12.41
2023-04-16T22:43:19.560Z,11.12
2023-04-16T22:48:22.647Z,10.21
2023-04-16T22:53:25.877Z,10.45
2023-04-16T22:58:28.659Z,12.51
2023-04-16T23:03:32.109Z,13.67
2023-04-16T23:08:35.077Z,14.33
2023-04-16T23:13:38.562Z,14.56
2023-04-16T23:18:41.400Z,12.97
2023-04-16T23:23:44.198Z,11.54
2023-04-16T23:28:47.004Z,10.56
2023-04-16T23:33:49.801Z,10.55
2023-04-16T23:38:52.580Z,12.41
2023-04-16T23:43:55.294Z,13.43
2023-04-16T23:48:58.106Z,13.82
2023-04-16T23:54:00.909Z,14.17
2023-04-16T23:59:03.709Z,13.84
